Lowlands Phoenix — 9V5327 — position and weather

sailwx.info

Track history (hours):
 
Tides and Currents Weather Stations Pressure Air Temp Water Temp Dewpoint Dewpoint Depression Visibility Wind Speed Wind Dir Waves Ship Positions

Lowlands Phoenix

Last reported at 2018-Jan-28 16:08 UTC. Time now 2018-Feb-20 21:54 UTC.
Position N 30°12' W 121°16'.
Warning: this ship's position is 23 days out of date.

Length 289 m; draft 8.8 m.

Type: Cargo ship. MMSI: 563014200.

Date/timePositionNaut miles runAvg speedWind from/ knotsBaromVisibWave heightAir tempDewpointWater temp
2018-Jan-28 16:08N 30°12' W 121°16'213.2
2018-Jan-28 16:00N 30°13' W 121°18'713.3
2018-Jan-28 15:30N 30°16' W 121°25'713.3
2018-Jan-28 15:00N 30°18' W 121°32'613.1
2018-Jan-28 14:30N 30°21' W 121°38'613.1
2018-Jan-28 14:00N 30°24' W 121°45'713.0
2018-Jan-28 13:30N 30°28' W 121°52'612.9
2018-Jan-28 13:00N 30°31' W 121°58'612.9
2018-Jan-28 12:30N 30°34' W 122°05'912.9
2018-Jan-28 11:48N 30°38' W 122°14'6512.6
2018-Jan-28 06:41N 31°07' W 123°22'212.1
2018-Jan-28 06:29N 31°08' W 123°24'612.3
2018-Jan-28 06:00N 31°10' W 123°30'712.4
2018-Jan-28 05:24N 31°14' W 123°38'1712.3
2018-Jan-28 03:59N 31°22' W 123°56'  
Track history (hours):
 
Tides and Currents Weather Stations Pressure Air Temp Water Temp Dewpoint Dewpoint Depression Visibility Wind Speed Wind Dir Waves Ship Positions

Lowlands Phoenix

Last reported at 2018-Jan-28 16:08 UTC. Time now 2018-Feb-20 21:54 UTC.
Position N 30°12' W 121°16'.
Warning: this ship's position is 23 days out of date.

Length 289 m; draft 8.8 m.

Type: Cargo ship. MMSI: 563014200.

Date/timePositionNaut miles runAvg speedWind from/ knotsBaromVisibWave heightAir tempDewpointWater temp
2018-Jan-28 16:08N 30°12' W 121°16'213.2
2018-Jan-28 16:00N 30°13' W 121°18'713.3
2018-Jan-28 15:30N 30°16' W 121°25'713.3
2018-Jan-28 15:00N 30°18' W 121°32'613.1
2018-Jan-28 14:30N 30°21' W 121°38'613.1
2018-Jan-28 14:00N 30°24' W 121°45'713.0
2018-Jan-28 13:30N 30°28' W 121°52'612.9
2018-Jan-28 13:00N 30°31' W 121°58'612.9
2018-Jan-28 12:30N 30°34' W 122°05'912.9
2018-Jan-28 11:48N 30°38' W 122°14'6512.6
2018-Jan-28 06:41N 31°07' W 123°22'212.1
2018-Jan-28 06:29N 31°08' W 123°24'612.3
2018-Jan-28 06:00N 31°10' W 123°30'712.4
2018-Jan-28 05:24N 31°14' W 123°38'1712.3
2018-Jan-28 03:59N 31°22' W 123°56'  

Dump ship's entire track history